Погода Риссанина 2 недели

Марракеш, Марокко

25 февраля-09 марта
  • 25февраля
    Сегодня
    +9°
    +23°
    Ясно и безоблачно
    ВремяПогодаТемператураВлажностьДавлениеВетер, м/сВероятность осадков
    01:00Ясно и безоблачно+15°C31 %667 мм2.8 м/с2 %
    04:00Ясно и безоблачно+12°C40 %666 мм2.3 м/с2 %
    07:00Ясно и безоблачно+10°C45 %667 мм3.5 м/с2 %
    10:00Ясно и безоблачно+13°C42 %669 мм2.2 м/с2 %
    13:00Ясно и безоблачно+19°C27 %670 мм6.1 м/с2 %
    16:00Ясно и безоблачно+22°C22 %668 мм7.6 м/с2 %
    19:00Ясно и безоблачно+21°C21 %668 мм6.8 м/с2 %
    22:00Ясно и безоблачно+17°C25 %667 мм5.4 м/с2 %
  • 26февраля
    Понедельник
    +9°
    +30°
    Небольшая облачность
    ВремяПогодаТемператураВлажностьДавлениеВетер, м/сВероятность осадков
    01:00Ясно и безоблачно+14°C30 %665 мм3.6 м/с2 %
    04:00Ясно и безоблачно+12°C36 %663 мм1.9 м/с2 %
    07:00Ясно и безоблачно+10°C39 %662 мм1.4 м/с2 %
    10:00Ясно и безоблачно+14°C31 %664 мм0.7 м/с2 %
    13:00Небольшая облачность+25°C14 %664 мм2.3 м/с2 %
    16:00Облачно с прояснениями+28°C10 %661 мм9.0 м/с2 %
    19:00Облачно с прояснениями+25°C7 %661 мм7.9 м/с2 %
    22:00Небольшая облачность+20°C22 %661 мм6.5 м/с4 %
  • 27февраля
    Вторник
    +7°
    +22°
    Ясно и безоблачно
    ВремяПогодаТемператураВлажностьДавлениеВетер, м/сВероятность осадков
    01:00Облачно с прояснениями+16°C33 %660 мм2.7 м/с5 %
    04:00Ясно и безоблачно+14°C38 %659 мм4.2 м/с4 %
    07:00Ясно и безоблачно+11°C46 %659 мм1.1 м/с2 %
    10:00Ясно и безоблачно+13°C42 %661 мм2.8 м/с3 %
    13:00Ясно и безоблачно+19°C24 %663 мм2.0 м/с3 %
    16:00Ясно и безоблачно+21°C13 %663 мм3.9 м/с2 %
    19:00Ясно и безоблачно+19°C16 %664 мм5.5 м/с2 %
    22:00Ясно и безоблачно+14°C22 %665 мм4.7 м/с2 %
  • 28февраля
    Среда
    +6°
    +22°
    Ясно и безоблачно
    ВремяПогодаТемператураВлажностьДавлениеВетер, м/сВероятность осадков
    01:00Ясно и безоблачно+12°C26 %664 мм3.6 м/с2 %
    04:00Ясно и безоблачно+10°C29 %663 мм1.0 м/с2 %
    07:00Ясно и безоблачно+7°C32 %663 мм1.3 м/с2 %
    10:00Ясно и безоблачно+11°C26 %666 мм1.9 м/с2 %
    13:00Ясно и безоблачно+17°C16 %666 мм4.7 м/с2 %
    16:00Ясно и безоблачно+21°C9 %665 мм3.8 м/с2 %
    19:00Ясно и безоблачно+20°C11 %665 мм3.6 м/с2 %
    22:00Ясно и безоблачно+16°C17 %665 мм1.0 м/с2 %
  • 29февраля
    Четверг
    +7°
    +22°
    Ясно и безоблачно
    ВремяПогодаТемператураВлажностьДавлениеВетер, м/сВероятность осадков
    01:00Ясно и безоблачно+12°C21 %664 мм2.0 м/с2 %
    04:00Ясно и безоблачно+10°C26 %663 мм2.3 м/с2 %
    07:00Ясно и безоблачно+7°C31 %663 мм2.5 м/с2 %
    10:00Ясно и безоблачно+11°C24 %667 мм1.5 м/с2 %
    13:00Ясно и безоблачно+18°C18 %668 мм4.0 м/с2 %
    16:00Ясно и безоблачно+21°C15 %666 мм5.5 м/с2 %
    19:00Ясно и безоблачно+21°C11 %665 мм3.8 м/с2 %
    22:00Ясно и безоблачно+15°C18 %664 мм2.3 м/с2 %
Мы используем cookies
Соглашаюсь